CST,Max TemperatureF,Mean TemperatureF,Min TemperatureF,Max Dew PointF,MeanDew PointF,Min DewpointF,Max Humidity, Mean Humidity, Min Humidity, Max Sea Level PressureIn, Mean Sea Level PressureIn, Min Sea Level PressureIn, Max VisibilityMiles, Mean VisibilityMiles, Min VisibilityMiles, Max Wind SpeedMPH, Mean Wind SpeedMPH, Max Gust SpeedMPH,PrecipitationIn, CloudCover, Events, WindDirDegrees
2013-2-1,3,-1,-5,0,-6,-13,85,74,56,30.22,30.13,30.05,10,8,2,18,14,,0.00,3,Snow,255
2013-2-2,10,6,1,0,-2,-6,85,76,52,30.09,30.05,29.96,10,8,2,8,5,,0.00,6,Snow,282
2013-2-3,14,10,5,3,1,0,92,76,62,29.99,29.93,29.82,10,10,3,18,9,20,0.00,6,Snow,267
2013-2-4,14,10,5,3,0,-2,79,69,53,29.98,29.94,29.89,10,10,7,8,5,,0.00,4,,301
2013-2-5,24,14,5,19,8,-2,93,79,63,30.07,29.87,29.71,10,9,2,14,7,,0.00,4,Snow,249
2013-2-6,42,22,3,28,14,1,100,86,34,30.20,30.11,30.07,10,7,1,9,5,,0.01,4,Snow,164
2013-2-7,32,26,21,32,26,19,100,98,93,30.09,30.04,29.96,4,2,0,24,8,32,0.00,8,Fog-Snow,47
2013-2-8,23,18,12,21,14,10,100,85,68,30.37,30.25,30.10,10,9,2,23,14,29,0.00,4,Snow,3
2013-2-9,28,16,3,25,14,1,100,90,80,30.36,30.25,30.07,10,5,0,16,4,,0.00,7,Fog-Snow,186
2013-2-10,39,30,21,39,30,21,100,97,65,30.06,29.70,29.32,10,6,2,20,7,26,0.00,7,Rain,143
2013-2-11,37,32,26,36,28,21,100,87,74,29.91,29.57,29.31,10,9,2,26,19,38,0.00,8,Rain-Snow,251
2013-2-12,28,24,21,21,19,16,93,82,64,30.02,29.91,29.80,10,9,2,16,12,18,0.00,5,Snow,248
2013-2-13,33,26,19,32,24,19,100,91,75,29.80,29.71,29.64,10,8,3,9,7,,0.00,5,Snow,211
2013-2-14,32,28,23,32,27,14,100,90,68,29.99,29.73,29.54,10,5,0,17,8,22,0.04,8,Snow,349
2013-2-15,21,14,8,12,6,0,85,67,53,30.16,30.09,30.01,10,10,10,17,11,24,0.00,5,,307
2013-2-16,17,8,0,1,-2,-6,85,68,42,30.15,30.13,30.10,10,10,10,12,8,,0.00,2,,292
2013-2-17,23,10,-2,10,0,-8,78,66,45,30.17,30.08,29.93,10,10,10,15,8,,0.00,2,,213
2013-2-18,39,32,24,34,25,14,100,80,64,29.91,29.61,29.40,10,7,0,17,13,22,0.03,6,Rain-Snow,190
2013-2-19,32,19,6,32,11,-2,100,82,62,30.09,29.74,29.44,10,5,1,23,17,32,0.00,6,Snow,286
2013-2-20,24,14,3,9,3,-2,79,70,46,30.38,30.25,30.10,10,10,10,16,13,,0.00,1,,322
2013-2-21,24,16,8,21,12,1,100,83,73,30.42,30.31,30.11,10,9,3,18,9,26,0.00,5,Snow,28
2013-2-22,28,26,23,28,24,18,100,93,74,30.11,29.90,29.77,10,4,0,17,9,24,0.00,8,Snow,77
2013-2-23,28,26,24,28,24,19,100,90,69,29.87,29.81,29.76,10,8,3,15,8,,0.00,8,Snow,255
2013-2-24,32,26,21,25,23,19,100,85,69,30.11,30.00,29.88,10,9,7,12,8,,0.00,6,Snow,252
2013-2-25,33,24,15,25,20,16,100,85,60,30.14,30.10,30.06,10,8,0,6,3,,0.00,2,Fog,184
2013-2-26,33,28,23,27,25,23,100,86,65,30.07,29.87,29.69,10,7,2,29,12,39,0.00,5,Snow,43
2013-2-27,33,30,28,30,28,25,100,92,80,29.79,29.70,29.64,10,6,1,23,19,34,0.00,8,Snow,16
2013-2-28,32,28,24,32,24,16,100,80,69,30.14,29.96,29.79,10,9,5,22,16,28,0.00,8,Snow,9